sensor_id;sensor_type;location;lat;lon;timestamp;pressure;altitude;pressure_sealevel;temperature;humidity
3254;BME280;1639;42.804;23.342;2022-09-29T00:00:22;71719.16;;;-148.52;79.50
3254;BME280;1639;42.804;23.342;2022-09-29T00:02:48;71719.16;;;-148.52;78.44
3254;BME280;1639;42.804;23.342;2022-09-29T00:05:13;71731.56;;;-148.52;80.00
3254;BME280;1639;42.804;23.342;2022-09-29T00:07:39;71737.75;;;-148.52;80.64
3254;BME280;1639;42.804;23.342;2022-09-29T00:10:04;71733.63;;;-148.52;80.04
3254;BME280;1639;42.804;23.342;2022-09-29T00:12:30;71741.88;;;-148.52;80.31
3254;BME280;1639;42.804;23.342;2022-09-29T00:14:55;71748.09;;;-148.52;82.07
3254;BME280;1639;42.804;23.342;2022-09-29T00:17:21;71748.09;;;-148.52;82.33
3254;BME280;1639;42.804;23.342;2022-09-29T00:19:46;71741.88;;;-148.52;80.90
3254;BME280;1639;42.804;23.342;2022-09-29T00:22:12;71735.69;;;-148.52;81.63
3254;BME280;1639;42.804;23.342;2022-09-29T00:24:37;71733.63;;;-148.52;80.69
3254;BME280;1639;42.804;23.342;2022-09-29T00:27:03;71752.22;;;-148.52;81.59
3254;BME280;1639;42.804;23.342;2022-09-29T00:29:28;71750.16;;;-148.52;81.71
3254;BME280;1639;42.804;23.342;2022-09-29T00:31:53;71750.16;;;-148.52;82.06
3254;BME280;1639;42.804;23.342;2022-09-29T00:34:19;71746.03;;;-148.52;81.60
3254;BME280;1639;42.804;23.342;2022-09-29T00:36:44;71748.09;;;-148.52;81.85
3254;BME280;1639;42.804;23.342;2022-09-29T00:39:10;71770.84;;;-148.52;84.39
3254;BME280;1639;42.804;23.342;2022-09-29T00:41:37;71762.56;;;-148.52;84.07
3254;BME280;1639;42.804;23.342;2022-09-29T00:44:51;71768.78;;;-148.52;84.65
3254;BME280;1639;42.804;23.342;2022-09-29T00:47:03;71772.91;;;-148.52;84.94
3254;BME280;1639;42.804;23.342;2022-09-29T00:49:41;71766.69;;;-148.52;85.32
3254;BME280;1639;42.804;23.342;2022-09-29T00:52:32;71772.91;;;-148.52;84.69
3254;BME280;1639;42.804;23.342;2022-09-29T00:57:53;71746.03;;;-148.52;82.91
3254;BME280;1639;42.804;23.342;2022-09-29T01:00:21;71762.56;;;-148.52;82.91
3254;BME280;1639;42.804;23.342;2022-09-29T01:02:52;71748.09;;;-148.52;81.32
3254;BME280;1639;42.804;23.342;2022-09-29T01:05:26;71772.91;;;-148.52;82.35
3254;BME280;1639;42.804;23.342;2022-09-29T01:07:57;71777.03;;;-148.52;82.65
3254;BME280;1639;42.804;23.342;2022-09-29T01:10:26;71774.97;;;-148.52;82.50
3254;BME280;1639;42.804;23.342;2022-09-29T01:12:52;71772.91;;;-148.52;81.78
3254;BME280;1639;42.804;23.342;2022-09-29T01:15:19;71774.97;;;-148.52;81.13
3254;BME280;1639;42.804;23.342;2022-09-29T01:17:46;71793.59;;;-148.52;84.33
3254;BME280;1639;42.804;23.342;2022-09-29T01:20:20;71777.03;;;-148.52;83.11
3254;BME280;1639;42.804;23.342;2022-09-29T01:31:11;71814.25;;;-148.52;83.13
3254;BME280;1639;42.804;23.342;2022-09-29T01:39:35;71853.53;;;-148.52;85.21
3254;BME280;1639;42.804;23.342;2022-09-29T01:44:39;71828.72;;;-148.52;85.01
3254;BME280;1639;42.804;23.342;2022-09-29T01:47:15;71818.38;;;-148.52;83.40
3254;BME280;1639;42.804;23.342;2022-09-29T01:49:47;71830.81;;;-148.52;83.97
3254;BME280;1639;42.804;23.342;2022-09-29T01:52:23;71820.47;;;-148.52;83.79
3254;BME280;1639;42.804;23.342;2022-09-29T01:54:56;71843.19;;;-148.52;84.47
3254;BME280;1639;42.804;23.342;2022-09-29T01:57:32;71837.00;;;-148.52;83.95
3254;BME280;1639;42.804;23.342;2022-09-29T02:00:04;71863.88;;;-148.52;87.38
3254;BME280;1639;42.804;23.342;2022-09-29T02:02:48;71851.47;;;-148.52;86.93
3254;BME280;1639;42.804;23.342;2022-09-29T02:05:26;71830.81;;;-148.52;85.75
3254;BME280;1639;42.804;23.342;2022-09-29T02:07:55;71826.66;;;-148.52;84.67
3254;BME280;1639;42.804;23.342;2022-09-29T02:10:25;71824.59;;;-148.52;84.53
3254;BME280;1639;42.804;23.342;2022-09-29T02:12:55;71818.38;;;-148.52;84.10
3254;BME280;1639;42.804;23.342;2022-09-29T02:15:25;71822.53;;;-148.52;84.72
3254;BME280;1639;42.804;23.342;2022-09-29T02:17:53;71812.19;;;-148.52;83.89
3254;BME280;1639;42.804;23.342;2022-09-29T02:20:20;71830.81;;;-148.52;85.51
3254;BME280;1639;42.804;23.342;2022-09-29T02:22:46;71822.53;;;-148.52;84.72
3254;BME280;1639;42.804;23.342;2022-09-29T02:25:15;71830.81;;;-148.52;84.64
3254;BME280;1639;42.804;23.342;2022-09-29T02:27:41;71832.88;;;-148.52;85.60
3254;BME280;1639;42.804;23.342;2022-09-29T02:30:08;71837.00;;;-148.52;84.08
3254;BME280;1639;42.804;23.342;2022-09-29T02:32:34;71847.34;;;-148.52;84.31
3254;BME280;1639;42.804;23.342;2022-09-29T02:35:02;71832.88;;;-148.52;84.06
3254;BME280;1639;42.804;23.342;2022-09-29T02:40:31;71888.69;;;-148.52;86.48
3254;BME280;1639;42.804;23.342;2022-09-29T02:59:19;72018.94;;;-148.52;98.49
3254;BME280;1639;42.804;23.342;2022-09-29T03:01:52;72008.63;;;-148.52;99.10
3254;BME280;1639;42.804;23.342;2022-09-29T03:04:19;72031.38;;;-148.52;100.00
3254;BME280;1639;42.804;23.342;2022-09-29T03:06:46;72025.16;;;-148.52;100.00
3254;BME280;1639;42.804;23.342;2022-09-29T03:09:12;72045.84;;;-148.52;99.73
3254;BME280;1639;42.804;23.342;2022-09-29T03:11:37;72043.78;;;-148.52;99.84
3254;BME280;1639;42.804;23.342;2022-09-29T03:14:02;72045.84;;;-148.52;99.58
3254;BME280;1639;42.804;23.342;2022-09-29T03:16:28;72033.44;;;-148.52;98.21
3254;BME280;1639;42.804;23.342;2022-09-29T03:18:54;72021.03;;;-148.52;96.59
3254;BME280;1639;42.804;23.342;2022-09-29T03:21:20;72025.16;;;-148.52;95.64
3254;BME280;1639;42.804;23.342;2022-09-29T03:23:46;72033.44;;;-148.52;95.87
3254;BME280;1639;42.804;23.342;2022-09-29T03:26:11;72025.16;;;-148.52;95.00
3254;BME280;1639;42.804;23.342;2022-09-29T03:28:36;72027.22;;;-148.52;93.24
3254;BME280;1639;42.804;23.342;2022-09-29T03:31:06;72052.03;;;-148.52;93.30
3254;BME280;1639;42.804;23.342;2022-09-29T03:33:33;72074.78;;;-148.52;95.05
3254;BME280;1639;42.804;23.342;2022-09-29T03:35:59;72074.78;;;-148.52;95.71
3254;BME280;1639;42.804;23.342;2022-09-29T03:38:25;72083.06;;;-148.52;94.67
3254;BME280;1639;42.804;23.342;2022-09-29T03:40:51;72091.31;;;-148.52;94.05
3254;BME280;1639;42.804;23.342;2022-09-29T03:43:16;72093.41;;;-148.52;93.63
3254;BME280;1639;42.804;23.342;2022-09-29T03:45:48;72107.88;;;-148.52;94.65
3254;BME280;1639;42.804;23.342;2022-09-29T03:48:14;72095.47;;;-148.52;95.66
3254;BME280;1639;42.804;23.342;2022-09-29T03:50:40;72099.59;;;-148.52;95.13
3254;BME280;1639;42.804;23.342;2022-09-29T03:53:05;72118.22;;;-148.52;96.91
3254;BME280;1639;42.804;23.342;2022-09-29T03:55:31;72103.72;;;-148.52;95.72
3254;BME280;1639;42.804;23.342;2022-09-29T03:57:56;72122.34;;;-148.52;96.19
3254;BME280;1639;42.804;23.342;2022-09-29T04:00:21;72128.53;;;-148.52;95.71
3254;BME280;1639;42.804;23.342;2022-09-29T04:02:47;72143.03;;;-148.52;95.32
3254;BME280;1639;42.804;23.342;2022-09-29T04:05:12;72163.69;;;-148.52;97.04
3254;BME280;1639;42.804;23.342;2022-09-29T04:07:38;72161.63;;;-148.52;98.71
3254;BME280;1639;42.804;23.342;2022-09-29T04:10:03;72149.22;;;-148.52;97.00
3254;BME280;1639;42.804;23.342;2022-09-29T04:12:29;72169.91;;;-148.52;97.66
3254;BME280;1639;42.804;23.342;2022-09-29T04:14:54;72174.03;;;-148.52;99.27
3254;BME280;1639;42.804;23.342;2022-09-29T04:17:20;72165.75;;;-148.52;99.54
3254;BME280;1639;42.804;23.342;2022-09-29T04:19:46;72147.16;;;-148.52;99.54
3254;BME280;1639;42.804;23.342;2022-09-29T04:22:14;72147.16;;;-148.52;97.11
3254;BME280;1639;42.804;23.342;2022-09-29T04:24:42;72180.25;;;-148.52;98.55
3254;BME280;1639;42.804;23.342;2022-09-29T04:27:08;72165.75;;;-148.52;100.00
3254;BME280;1639;42.804;23.342;2022-09-29T04:29:33;72163.69;;;-148.52;99.66
3254;BME280;1639;42.804;23.342;2022-09-29T04:31:58;72182.31;;;-148.52;100.00
3254;BME280;1639;42.804;23.342;2022-09-29T04:34:24;72184.38;;;-148.52;100.00
3254;BME280;1639;42.804;23.342;2022-09-29T04:36:49;72174.03;;;-148.52;100.00
3254;BME280;1639;42.804;23.342;2022-09-29T04:39:15;72207.13;;;-148.52;100.00
3254;BME280;1639;42.804;23.342;2022-09-29T04:41:40;72215.38;;;-148.52;100.00
3254;BME280;1639;42.804;23.342;2022-09-29T04:44:06;72215.38;;;-148.52;100.00
3254;BME280;1639;42.804;23.342;2022-09-29T04:46:31;72207.13;;;-148.52;100.00
3254;BME280;1639;42.804;23.342;2022-09-29T04:48:57;72209.19;;;-148.52;100.00
3254;BME280;1639;42.804;23.342;2022-09-29T04:51:22;72186.44;;;-148.52;100.00
3254;BME280;1639;42.804;23.342;2022-09-29T04:53:47;72169.91;;;-148.52;100.00
3254;BME280;1639;42.804;23.342;2022-09-29T04:56:13;72157.50;;;-148.52;100.00
3254;BME280;1639;42.804;23.342;2022-09-29T04:58:38;72140.94;;;-148.52;100.00
3254;BME280;1639;42.804;23.342;2022-09-29T05:01:08;72112.00;;;-148.52;100.00
3254;BME280;1639;42.804;23.342;2022-09-29T05:03:36;72112.00;;;-148.52;98.16
3254;BME280;1639;42.804;23.342;2022-09-29T05:06:02;72122.34;;;-148.52;97.85
3254;BME280;1639;42.804;23.342;2022-09-29T05:08:27;72132.69;;;-148.52;100.00
3254;BME280;1639;42.804;23.342;2022-09-29T05:10:53;72103.72;;;-148.52;100.00
3254;BME280;1639;42.804;23.342;2022-09-29T05:13:18;72089.25;;;-148.52;99.94
3254;BME280;1639;42.804;23.342;2022-09-29T05:15:43;72093.41;;;-148.52;99.30
3254;BME280;1639;42.804;23.342;2022-09-29T05:18:09;72070.66;;;-148.52;99.28
3254;BME280;1639;42.804;23.342;2022-09-29T05:20:34;72072.72;;;-148.52;99.68
3254;BME280;1639;42.804;23.342;2022-09-29T05:23:00;72068.59;;;-148.52;99.34
3254;BME280;1639;42.804;23.342;2022-09-29T05:25:26;72049.97;;;-148.52;99.15
3254;BME280;1639;42.804;23.342;2022-09-29T05:27:52;72025.16;;;-148.52;98.08
3254;BME280;1639;42.804;23.342;2022-09-29T05:30:17;72018.94;;;-148.52;97.53
3254;BME280;1639;42.804;23.342;2022-09-29T05:32:43;72006.56;;;-148.52;97.19
3254;BME280;1639;42.804;23.342;2022-09-29T05:35:08;71992.06;;;-148.52;97.27
3254;BME280;1639;42.804;23.342;2022-09-29T05:37:34;71967.25;;;-148.52;96.58
3254;BME280;1639;42.804;23.342;2022-09-29T05:40:00;71975.53;;;-148.52;96.17
3254;BME280;1639;42.804;23.342;2022-09-29T05:42:25;71952.78;;;-148.52;95.45
3254;BME280;1639;42.804;23.342;2022-09-29T05:44:51;71950.72;;;-148.52;95.31
3254;BME280;1639;42.804;23.342;2022-09-29T05:47:17;71930.03;;;-148.52;94.26
3254;BME280;1639;42.804;23.342;2022-09-29T05:49:42;71925.91;;;-148.52;93.79
3254;BME280;1639;42.804;23.342;2022-09-29T05:52:08;71917.63;;;-148.52;93.62
3254;BME280;1639;42.804;23.342;2022-09-29T05:54:33;71925.91;;;-148.52;93.09
3254;BME280;1639;42.804;23.342;2022-09-29T05:56:58;71942.44;;;-148.52;93.46
3254;BME280;1639;42.804;23.342;2022-09-29T05:59:24;71938.31;;;-148.52;93.84
3254;BME280;1639;42.804;23.342;2022-09-29T06:01:49;71913.50;;;-148.52;92.95
3254;BME280;1639;42.804;23.342;2022-09-29T06:04:15;71882.50;;;-148.52;92.63
3254;BME280;1639;42.804;23.342;2022-09-29T06:06:41;71890.75;;;-148.52;91.33
3254;BME280;1639;42.804;23.342;2022-09-29T06:09:07;71870.09;;;-148.52;90.54
3254;BME280;1639;42.804;23.342;2022-09-29T06:11:32;71868.00;;;-148.52;89.87
3254;BME280;1639;42.804;23.342;2022-09-29T06:13:58;71851.47;;;-148.52;89.73
3254;BME280;1639;42.804;23.342;2022-09-29T06:16:27;71839.06;;;-148.52;90.80
3254;BME280;1639;42.804;23.342;2022-09-29T06:18:53;71820.47;;;-148.52;89.13
3254;BME280;1639;42.804;23.342;2022-09-29T06:21:23;71787.38;;;-148.52;88.02
3254;BME280;1639;42.804;23.342;2022-09-29T06:23:50;71791.50;;;-148.52;87.84
3254;BME280;1639;42.804;23.342;2022-09-29T06:26:17;71760.50;;;-148.52;87.28
3254;BME280;1639;42.804;23.342;2022-09-29T06:28:43;71737.75;;;-148.52;86.76
3254;BME280;1639;42.804;23.342;2022-09-29T06:31:17;71727.41;;;-148.52;86.06
3254;BME280;1639;42.804;23.342;2022-09-29T06:33:43;71717.09;;;-148.52;85.65
3254;BME280;1639;42.804;23.342;2022-09-29T06:36:25;71698.47;;;-148.52;85.28
3254;BME280;1639;42.804;23.342;2022-09-29T06:39:12;71675.72;;;-148.52;84.67
3254;BME280;1639;42.804;23.342;2022-09-29T06:41:38;71657.13;;;-148.52;82.74
3254;BME280;1639;42.804;23.342;2022-09-29T06:44:04;71642.66;;;-148.52;82.56
3254;BME280;1639;42.804;23.342;2022-09-29T06:46:29;71611.63;;;-148.52;81.52
3254;BME280;1639;42.804;23.342;2022-09-29T06:48:55;71628.19;;;-148.52;81.16
3254;BME280;1639;42.804;23.342;2022-09-29T06:51:23;71595.09;;;-148.52;81.33
3254;BME280;1639;42.804;23.342;2022-09-29T06:53:49;71562.03;;;-148.52;81.53
3254;BME280;1639;42.804;23.342;2022-09-29T06:56:15;71543.41;;;-148.52;78.55
3254;BME280;1639;42.804;23.342;2022-09-29T06:58:41;71541.34;;;-148.52;80.27
3254;BME280;1639;42.804;23.342;2022-09-29T07:01:06;71553.75;;;-148.52;79.53
3254;BME280;1639;42.804;23.342;2022-09-29T07:03:33;71535.13;;;-148.52;79.74
3254;BME280;1639;42.804;23.342;2022-09-29T07:06:06;71535.13;;;-148.52;79.51
3254;BME280;1639;42.804;23.342;2022-09-29T07:08:32;71531.00;;;-148.52;80.62
3254;BME280;1639;42.804;23.342;2022-09-29T07:11:00;71547.53;;;-148.52;79.29
3254;BME280;1639;42.804;23.342;2022-09-29T07:13:29;71533.06;;;-148.52;79.65
3254;BME280;1639;42.804;23.342;2022-09-29T07:15:55;71524.81;;;-148.52;77.74
3254;BME280;1639;42.804;23.342;2022-09-29T07:18:20;71495.84;;;-148.52;78.39
3254;BME280;1639;42.804;23.342;2022-09-29T07:20:46;71464.84;;;-148.52;76.72
3254;BME280;1639;42.804;23.342;2022-09-29T07:23:11;71442.09;;;-148.52;76.53
3254;BME280;1639;42.804;23.342;2022-09-29T07:25:38;71419.38;;;-148.52;75.15
3254;BME280;1639;42.804;23.342;2022-09-29T07:28:03;71446.25;;;-148.52;76.28
3254;BME280;1639;42.804;23.342;2022-09-29T07:30:29;71462.78;;;-148.52;77.75
3254;BME280;1639;42.804;23.342;2022-09-29T07:32:55;71444.19;;;-148.52;77.05
3254;BME280;1639;42.804;23.342;2022-09-29T07:35:21;71437.97;;;-148.52;77.87
3254;BME280;1639;42.804;23.342;2022-09-29T07:37:53;71448.31;;;-148.52;78.68
3254;BME280;1639;42.804;23.342;2022-09-29T07:40:22;71425.56;;;-148.52;77.70
3254;BME280;1639;42.804;23.342;2022-09-29T07:42:48;71433.84;;;-148.52;76.22
3254;BME280;1639;42.804;23.342;2022-09-29T07:45:15;71437.97;;;-148.52;77.17
3254;BME280;1639;42.804;23.342;2022-09-29T07:47:41;71446.25;;;-148.52;77.69
3254;BME280;1639;42.804;23.342;2022-09-29T07:50:07;71402.81;;;-148.52;77.80
3254;BME280;1639;42.804;23.342;2022-09-29T07:52:32;71365.63;;;-148.52;74.98
3254;BME280;1639;42.804;23.342;2022-09-29T07:54:57;71344.94;;;-148.52;72.35
3254;BME280;1639;42.804;23.342;2022-09-29T07:57:23;71324.25;;;-148.52;71.83
3254;BME280;1639;42.804;23.342;2022-09-29T07:59:48;71287.06;;;-148.52;69.38
3254;BME280;1639;42.804;23.342;2022-09-29T08:02:13;71264.31;;;-148.52;68.94
3254;BME280;1639;42.804;23.342;2022-09-29T08:04:39;71222.97;;;-148.52;68.33
3254;BME280;1639;42.804;23.342;2022-09-29T08:07:06;71202.28;;;-148.52;65.50
3254;BME280;1639;42.804;23.342;2022-09-29T08:09:32;71198.16;;;-148.52;63.79
3254;BME280;1639;42.804;23.342;2022-09-29T08:11:57;71185.75;;;-148.52;63.66
3254;BME280;1639;42.804;23.342;2022-09-29T08:14:22;71183.69;;;-148.52;63.36
3254;BME280;1639;42.804;23.342;2022-09-29T08:16:48;71187.81;;;-148.52;62.51
3254;BME280;1639;42.804;23.342;2022-09-29T08:19:13;71167.16;;;-148.52;61.29
3254;BME280;1639;42.804;23.342;2022-09-29T08:21:39;71140.28;;;-148.52;54.13
3254;BME280;1639;42.804;23.342;2022-09-29T08:24:05;71105.13;;;-148.52;54.25
3254;BME280;1639;42.804;23.342;2022-09-29T08:26:36;71090.66;;;-148.52;53.57
3254;BME280;1639;42.804;23.342;2022-09-29T08:29:02;71101.00;;;-148.52;52.34
3254;BME280;1639;42.804;23.342;2022-09-29T08:31:28;71080.31;;;-148.52;56.18
3254;BME280;1639;42.804;23.342;2022-09-29T08:33:55;71086.53;;;-148.52;51.67
3254;BME280;1639;42.804;23.342;2022-09-29T08:36:22;71063.78;;;-148.52;52.89
3254;BME280;1639;42.804;23.342;2022-09-29T08:38:50;71041.03;;;-148.52;52.52
3254;BME280;1639;42.804;23.342;2022-09-29T08:43:46;71028.66;;;-148.52;51.27
3254;BME280;1639;42.804;23.342;2022-09-29T08:46:24;71049.31;;;-148.52;50.99
3254;BME280;1639;42.804;23.342;2022-09-29T08:48:53;71059.66;;;-148.52;50.83
3254;BME280;1639;42.804;23.342;2022-09-29T08:51:32;71080.31;;;-148.52;50.36
3254;BME280;1639;42.804;23.342;2022-09-29T08:54:08;71086.53;;;-148.52;51.72
3254;BME280;1639;42.804;23.342;2022-09-29T08:56:37;71080.31;;;-148.52;50.36
3254;BME280;1639;42.804;23.342;2022-09-29T08:59:03;71076.19;;;-148.52;51.54
3254;BME280;1639;42.804;23.342;2022-09-29T09:01:36;71061.72;;;-148.52;51.25
3254;BME280;1639;42.804;23.342;2022-09-29T09:04:18;71059.66;;;-148.52;50.10
3254;BME280;1639;42.804;23.342;2022-09-29T09:09:30;71038.97;;;-148.52;49.09
3254;BME280;1639;42.804;23.342;2022-09-29T09:20:14;71014.19;;;-148.52;47.78
3254;BME280;1639;42.804;23.342;2022-09-29T09:23:19;71001.78;;;-148.52;47.97
3254;BME280;1639;42.804;23.342;2022-09-29T09:25:35;70972.84;;;-148.52;49.16
3254;BME280;1639;42.804;23.342;2022-09-29T09:28:16;70983.16;;;-148.52;47.34
3254;BME280;1639;42.804;23.342;2022-09-29T09:33:45;71036.91;;;-148.52;48.10
3254;BME280;1639;42.804;23.342;2022-09-29T09:38:57;71032.78;;;-148.52;47.45
3254;BME280;1639;42.804;23.342;2022-09-29T09:41:24;71028.66;;;-148.52;47.02
3254;BME280;1639;42.804;23.342;2022-09-29T09:43:58;71016.25;;;-148.52;50.07
3254;BME280;1639;42.804;23.342;2022-09-29T09:46:35;70995.56;;;-148.52;48.24
3254;BME280;1639;42.804;23.342;2022-09-29T09:49:17;70979.03;;;-148.52;48.69
3254;BME280;1639;42.804;23.342;2022-09-29T09:51:54;70970.75;;;-148.52;47.42
3254;BME280;1639;42.804;23.342;2022-09-29T09:54:39;70960.44;;;-148.52;44.08
3254;BME280;1639;42.804;23.342;2022-09-29T10:02:46;70974.91;;;-148.52;43.85
3254;BME280;1639;42.804;23.342;2022-09-29T10:05:14;70970.75;;;-148.52;43.35
3254;BME280;1639;42.804;23.342;2022-09-29T10:07:41;70991.44;;;-148.52;43.23
3254;BME280;1639;42.804;23.342;2022-09-29T10:10:15;71014.19;;;-148.52;44.83
3254;BME280;1639;42.804;23.342;2022-09-29T10:12:41;71020.38;;;-148.52;44.95
3254;BME280;1639;42.804;23.342;2022-09-29T10:15:44;71016.25;;;-148.52;43.97
3254;BME280;1639;42.804;23.342;2022-09-29T10:20:40;70995.56;;;-148.52;44.32
3254;BME280;1639;42.804;23.342;2022-09-29T10:23:34;70968.69;;;-148.52;44.57
3254;BME280;1639;42.804;23.342;2022-09-29T10:26:12;70929.41;;;-148.52;44.25
3254;BME280;1639;42.804;23.342;2022-09-29T10:28:46;70900.47;;;-148.52;43.11
3254;BME280;1639;42.804;23.342;2022-09-29T10:31:21;70871.53;;;-148.52;42.57
3254;BME280;1639;42.804;23.342;2022-09-29T10:33:55;70855.00;;;-148.52;41.80
3254;BME280;1639;42.804;23.342;2022-09-29T10:36:23;70844.66;;;-148.52;41.72
3254;BME280;1639;42.804;23.342;2022-09-29T10:38:51;70852.94;;;-148.52;41.52
3254;BME280;1639;42.804;23.342;2022-09-29T10:41:17;70861.22;;;-148.52;42.06
3254;BME280;1639;42.804;23.342;2022-09-29T10:43:45;70875.69;;;-148.52;41.37
3254;BME280;1639;42.804;23.342;2022-09-29T10:46:37;70888.06;;;-148.52;41.87
3254;BME280;1639;42.804;23.342;2022-09-29T10:49:16;70879.81;;;-148.52;41.31
3254;BME280;1639;42.804;23.342;2022-09-29T10:54:26;70908.75;;;-148.52;41.09
3254;BME280;1639;42.804;23.342;2022-09-29T10:56:53;70912.88;;;-148.52;42.25
3254;BME280;1639;42.804;23.342;2022-09-29T10:59:20;70925.28;;;-148.52;41.56
3254;BME280;1639;42.804;23.342;2022-09-29T11:01:51;70912.88;;;-148.52;42.36
3254;BME280;1639;42.804;23.342;2022-09-29T11:06:46;70879.81;;;-148.52;42.05
3254;BME280;1639;42.804;23.342;2022-09-29T11:11:52;70861.22;;;-148.52;41.66
3254;BME280;1639;42.804;23.342;2022-09-29T11:16:55;70877.75;;;-148.52;41.44
3254;BME280;1639;42.804;23.342;2022-09-29T11:19:22;70850.88;;;-148.52;40.99
3254;BME280;1639;42.804;23.342;2022-09-29T11:25:16;70828.13;;;-148.52;40.94
3254;BME280;1639;42.804;23.342;2022-09-29T11:30:41;70838.47;;;-148.52;40.17
3254;BME280;1639;42.804;23.342;2022-09-29T11:33:18;70846.75;;;-148.52;41.37
3254;BME280;1639;42.804;23.342;2022-09-29T11:39:08;70788.84;;;-148.52;39.68
3254;BME280;1639;42.804;23.342;2022-09-29T11:41:48;70749.59;;;-148.52;39.46
3254;BME280;1639;42.804;23.342;2022-09-29T11:49:52;70743.38;;;-148.52;40.00
3254;BME280;1639;42.804;23.342;2022-09-29T11:58:00;70722.72;;;-148.52;39.82
3254;BME280;1639;42.804;23.342;2022-09-29T12:00:39;70722.72;;;-148.52;38.13
3254;BME280;1639;42.804;23.342;2022-09-29T12:03:32;70745.44;;;-148.52;37.88
3254;BME280;1639;42.804;23.342;2022-09-29T12:06:32;70755.78;;;-148.52;38.33
3254;BME280;1639;42.804;23.342;2022-09-29T12:15:02;70772.31;;;-148.52;39.62
3254;BME280;1639;42.804;23.342;2022-09-29T12:17:35;70780.59;;;-148.52;39.80
3254;BME280;1639;42.804;23.342;2022-09-29T12:20:15;70772.31;;;-148.52;38.97
3254;BME280;1639;42.804;23.342;2022-09-29T12:22:44;70782.66;;;-148.52;38.60
3254;BME280;1639;42.804;23.342;2022-09-29T12:25:19;70780.59;;;-148.52;38.96
3254;BME280;1639;42.804;23.342;2022-09-29T12:27:53;70770.25;;;-148.52;40.29
3254;BME280;1639;42.804;23.342;2022-09-29T12:30:24;70749.59;;;-148.52;39.58
3254;BME280;1639;42.804;23.342;2022-09-29T12:35:52;70764.06;;;-148.52;38.50
3254;BME280;1639;42.804;23.342;2022-09-29T12:43:50;70759.91;;;-148.52;39.71
3254;BME280;1639;42.804;23.342;2022-09-29T12:46:41;70762.00;;;-148.52;38.51
3254;BME280;1639;42.804;23.342;2022-09-29T12:52:23;70772.31;;;-148.52;38.46
3254;BME280;1639;42.804;23.342;2022-09-29T12:54:54;70778.53;;;-148.52;39.60
3254;BME280;1639;42.804;23.342;2022-09-29T12:57:25;70788.84;;;-148.52;40.43
3254;BME280;1639;42.804;23.342;2022-09-29T13:00:05;70817.78;;;-148.52;40.33
3254;BME280;1639;42.804;23.342;2022-09-29T13:03:00;70826.06;;;-148.52;40.90
3254;BME280;1639;42.804;23.342;2022-09-29T13:11:50;70896.34;;;-148.52;41.32
3254;BME280;1639;42.804;23.342;2022-09-29T13:14:43;70910.81;;;-148.52;41.06
3254;BME280;1639;42.804;23.342;2022-09-29T13:22:32;70919.09;;;-148.52;42.08
3254;BME280;1639;42.804;23.342;2022-09-29T13:25:32;70921.16;;;-148.52;42.01
3254;BME280;1639;42.804;23.342;2022-09-29T13:28:30;70925.28;;;-148.52;41.92
3254;BME280;1639;42.804;23.342;2022-09-29T13:31:10;70912.88;;;-148.52;42.38
3254;BME280;1639;42.804;23.342;2022-09-29T13:33:38;70923.22;;;-148.52;42.05
3254;BME280;1639;42.804;23.342;2022-09-29T13:36:05;70931.50;;;-148.52;42.72
3254;BME280;1639;42.804;23.342;2022-09-29T13:38:36;70945.97;;;-148.52;41.84
3254;BME280;1639;42.804;23.342;2022-09-29T13:46:36;70954.22;;;-148.52;43.11
3254;BME280;1639;42.804;23.342;2022-09-29T13:51:59;70956.28;;;-148.52;43.87
3254;BME280;1639;42.804;23.342;2022-09-29T13:54:37;70983.16;;;-148.52;45.21
3254;BME280;1639;42.804;23.342;2022-09-29T13:57:17;71003.84;;;-148.52;45.47
3254;BME280;1639;42.804;23.342;2022-09-29T14:04:53;71028.66;;;-148.52;46.53
3254;BME280;1639;42.804;23.342;2022-09-29T14:12:54;71076.19;;;-148.52;46.96
3254;BME280;1639;42.804;23.342;2022-09-29T14:15:22;71086.53;;;-148.52;47.83
3254;BME280;1639;42.804;23.342;2022-09-29T14:17:54;71094.78;;;-148.52;47.99
3254;BME280;1639;42.804;23.342;2022-09-29T14:20:27;71105.13;;;-148.52;49.46
3254;BME280;1639;42.804;23.342;2022-09-29T14:23:00;71111.34;;;-148.52;49.67
3254;BME280;1639;42.804;23.342;2022-09-29T14:25:33;71129.94;;;-148.52;50.64
3254;BME280;1639;42.804;23.342;2022-09-29T14:28:20;71129.94;;;-148.52;50.40
3254;BME280;1639;42.804;23.342;2022-09-29T14:30:50;71140.28;;;-148.52;50.54
3254;BME280;1639;42.804;23.342;2022-09-29T14:38:21;71189.88;;;-148.52;50.79
3254;BME280;1639;42.804;23.342;2022-09-29T14:41:28;71194.03;;;-148.52;51.01
3254;BME280;1639;42.804;23.342;2022-09-29T14:49:51;71194.03;;;-148.52;49.03
3254;BME280;1639;42.804;23.342;2022-09-29T14:58:40;71177.50;;;-148.52;46.52
3254;BME280;1639;42.804;23.342;2022-09-29T15:03:55;71148.53;;;-148.52;46.57
3254;BME280;1639;42.804;23.342;2022-09-29T15:06:26;71142.34;;;-148.52;46.93
3254;BME280;1639;42.804;23.342;2022-09-29T15:09:00;71129.94;;;-148.52;46.93
3254;BME280;1639;42.804;23.342;2022-09-29T15:11:33;71138.22;;;-148.52;46.90
3254;BME280;1639;42.804;23.342;2022-09-29T15:14:25;71165.09;;;-148.52;50.20
3254;BME280;1639;42.804;23.342;2022-09-29T15:25:09;71222.97;;;-148.52;52.32
3254;BME280;1639;42.804;23.342;2022-09-29T15:27:42;71260.19;;;-148.52;54.52
3254;BME280;1639;42.804;23.342;2022-09-29T15:30:14;71305.66;;;-148.52;57.11
3254;BME280;1639;42.804;23.342;2022-09-29T15:32:41;71326.34;;;-148.52;58.75
3254;BME280;1639;42.804;23.342;2022-09-29T15:35:13;71355.28;;;-148.52;60.81
3254;BME280;1639;42.804;23.342;2022-09-29T15:40:19;71330.47;;;-148.52;61.10
3254;BME280;1639;42.804;23.342;2022-09-29T15:42:45;71334.59;;;-148.52;61.31
3254;BME280;1639;42.804;23.342;2022-09-29T15:45:31;71371.81;;;-148.52;62.85
3254;BME280;1639;42.804;23.342;2022-09-29T15:48:05;71392.50;;;-148.52;63.12
3254;BME280;1639;42.804;23.342;2022-09-29T15:50:32;71473.13;;;-148.52;66.23
3254;BME280;1639;42.804;23.342;2022-09-29T15:53:01;71506.19;;;-148.52;67.52
3254;BME280;1639;42.804;23.342;2022-09-29T15:55:29;71500.00;;;-148.52;68.29
3254;BME280;1639;42.804;23.342;2022-09-29T15:57:55;71477.25;;;-148.52;66.73
3254;BME280;1639;42.804;23.342;2022-09-29T16:02:57;71471.06;;;-148.52;65.87